Time;durP1;ratioP1;P1;durP2;ratioP2;P2;SDS_P1;SDS_P2;PMS_P1;PMS_P2;Temp;Humidity;BMP_temperature;BMP_pressure;BME280_temperature;BME280_humidity;BME280_pressure;Samples;Min_cycle;Max_cycle;Signal;HPM_P1;HPM_P2
2021/03/24 00:00:40;;;;;;;6.35;3.78;;;7.60;99.90;;;;;;4985477;28;20037;-50
2021/03/24 00:03:06;;;;;;;6.30;3.90;;;7.50;99.90;;;;;;5036162;28;20045;-50
2021/03/24 00:05:37;;;;;;;6.43;2.90;;;7.50;99.90;;;;;;5036213;28;20080;-51
2021/03/24 00:08:04;;;;;;;4.40;3.17;;;7.40;99.90;;;;;;5039536;28;20040;-50
2021/03/24 00:10:31;;;;;;;4.38;3.22;;;;;;;;;;5045307;28;20036;-50
2021/03/24 00:12:58;;;;;;;6.63;3.63;;;7.30;99.90;;;;;;5045753;28;20049;-50
2021/03/24 00:15:25;;;;;;;7.72;3.42;;;7.20;99.90;;;;;;4971355;28;20097;-51
2021/03/24 00:17:52;;;;;;;8.38;5.00;;;7.20;99.90;;;;;;5046220;28;20032;-49
2021/03/24 00:20:21;;;;;;;4.25;2.95;;;7.20;99.90;;;;;;5038360;28;20033;-51
2021/03/24 00:22:47;;;;;;;2.60;2.08;;;7.30;99.90;;;;;;5035864;28;20041;-49
2021/03/24 00:25:15;;;;;;;6.22;3.92;;;7.20;99.90;;;;;;5017520;28;20041;-49
2021/03/24 00:27:42;;;;;;;2.30;1.80;;;7.30;99.90;;;;;;5035964;28;20041;-50
2021/03/24 00:30:09;;;;;;;5.25;3.55;;;7.20;99.90;;;;;;5035874;28;20045;-50
2021/03/24 00:32:35;;;;;;;5.78;3.67;;;7.10;99.90;;;;;;4985179;28;20163;-49
2021/03/24 00:35:01;;;;;;;6.82;4.07;;;;;;;;;;4984552;28;20128;-50
2021/03/24 00:37:26;;;;;;;5.53;3.50;;;7.20;99.90;;;;;;5035668;28;20523;-50
2021/03/24 00:39:52;;;;;;;5.75;3.25;;;7.20;99.90;;;;;;5035945;28;20033;-50
2021/03/24 00:42:18;;;;;;;6.10;3.45;;;7.20;99.90;;;;;;5035248;28;20065;-50
2021/03/24 00:44:43;;;;;;;6.88;2.03;;;7.10;99.90;;;;;;5035326;28;20148;-49
2021/03/24 00:47:09;;;;;;;6.78;3.80;;;7.10;99.90;;;;;;5016991;28;20508;-50
2021/03/24 00:49:35;;;;;;;5.72;3.35;;;7.00;99.90;;;;;;5035446;28;20022;-49
2021/03/24 00:52:01;;;;;;;6.80;3.63;;;7.10;99.90;;;;;;4984863;28;20477;-51
2021/03/24 00:54:27;;;;;;;4.25;2.35;;;7.00;99.90;;;;;;5035321;28;20331;-58
2021/03/24 00:56:52;;;;;;;3.45;2.70;;;7.10;99.90;;;;;;5035245;28;20056;-51
2021/03/24 00:59:18;;;;;;;6.75;3.72;;;7.00;99.90;;;;;;4984253;28;20037;-50
2021/03/24 01:01:44;;;;;;;9.10;5.28;;;7.10;99.90;;;;;;5035358;28;20021;-50
2021/03/24 01:04:10;;;;;;;6.43;3.63;;;7.00;99.90;;;;;;5035266;28;20033;-52
2021/03/24 01:06:36;;;;;;;5.50;3.63;;;7.10;99.90;;;;;;5035144;28;20052;-50
2021/03/24 01:09:03;;;;;;;4.03;2.47;;;7.10;99.90;;;;;;5035118;28;20022;-51
2021/03/24 01:11:29;;;;;;;8.15;4.03;;;7.00;99.90;;;;;;5040182;28;20387;-49
2021/03/24 01:13:55;;;;;;;6.72;3.65;;;6.90;99.90;;;;;;5043609;28;20049;-49
2021/03/24 01:16:21;;;;;;;8.57;4.85;;;6.90;99.90;;;;;;5035040;28;20479;-51
2021/03/24 01:18:46;;;;;;;2.53;1.90;;;7.10;99.90;;;;;;5035340;28;20036;-50
2021/03/24 01:21:12;;;;;;;5.93;3.70;;;6.90;99.90;;;;;;5034845;28;20052;-50
2021/03/24 01:23:38;;;;;;;5.65;3.90;;;;;;;;;;5034814;28;20239;-50
2021/03/24 01:26:04;;;;;;;7.57;4.25;;;6.90;99.90;;;;;;5034733;28;20064;-50
2021/03/24 01:28:30;;;;;;;5.20;3.00;;;7.00;99.90;;;;;;5034657;28;20065;-49
2021/03/24 01:30:58;;;;;;;6.93;4.10;;;7.00;99.90;;;;;;5032588;28;20487;-51
2021/03/24 01:33:25;;;;;;;7.68;3.97;;;7.20;99.90;;;;;;5034258;28;20025;-49
2021/03/24 01:35:51;;;;;;;7.30;3.38;;;7.10;99.90;;;;;;5034660;28;20112;-50
2021/03/24 01:38:17;;;;;;;6.85;4.70;;;7.10;99.90;;;;;;5034900;28;20036;-50
2021/03/24 01:40:47;;;;;;;6.75;4.25;;;7.00;99.90;;;;;;4999348;28;20038;-50
2021/03/24 01:43:31;;;;;;;4.07;2.47;;;7.00;99.90;;;;;;5034462;28;20086;-51
2021/03/24 01:46:19;;;;;;;6.68;3.65;;;6.90;99.90;;;;;;5034661;28;20017;-50
2021/03/24 01:49:11;;;;;;;5.25;3.03;;;6.90;99.90;;;;;;5034332;28;20366;-50
2021/03/24 01:51:44;;;;;;;4.18;2.80;;;6.80;99.90;;;;;;5034362;28;20060;-50
2021/03/24 01:54:15;;;;;;;3.97;2.30;;;6.70;99.90;;;;;;5034445;28;20048;-49
2021/03/24 01:56:44;;;;;;;7.95;3.58;;;6.70;99.90;;;;;;5031006;28;20082;-50
2021/03/24 01:59:10;;;;;;;5.63;3.45;;;;;;;;;;5034527;28;20028;-50
2021/03/24 02:01:36;;;;;;;9.10;4.45;;;6.80;99.90;;;;;;5034018;28;20112;-51
2021/03/24 02:04:02;;;;;;;6.70;3.72;;;6.80;99.90;;;;;;5033611;28;20112;-49
2021/03/24 02:06:38;;;;;;;5.32;2.85;;;6.70;99.90;;;;;;5033878;28;20022;-51
2021/03/24 02:09:19;;;;;;;8.07;4.50;;;6.60;99.90;;;;;;5034102;28;20107;-49
2021/03/24 02:11:54;;;;;;;6.50;4.45;;;6.70;99.90;;;;;;5038091;28;20028;-49
2021/03/24 02:14:40;;;;;;;5.13;3.40;;;6.70;99.90;;;;;;5045283;28;20095;-50
2021/03/24 02:17:07;;;;;;;6.22;3.47;;;6.60;99.90;;;;;;5033857;28;20600;-49
2021/03/24 02:19:48;;;;;;;1.88;1.35;;;6.50;99.90;;;;;;5033805;28;20048;-49
2021/03/24 02:22:17;;;;;;;6.32;3.47;;;6.40;99.90;;;;;;5033753;28;20118;-60
2021/03/24 02:24:48;;;;;;;6.65;4.47;;;;;;;;;;5033600;28;20109;-50
2021/03/24 02:27:25;;;;;;;5.40;3.03;;;6.60;99.90;;;;;;5016248;28;20030;-50
2021/03/24 02:29:56;;;;;;;8.00;4.40;;;6.60;99.90;;;;;;5033335;28;20124;-51
2021/03/24 02:32:26;;;;;;;10.82;5.88;;;6.60;99.90;;;;;;5033482;28;20096;-50
2021/03/24 02:34:56;;;;;;;4.60;2.17;;;6.60;99.90;;;;;;4998650;28;20103;-51
2021/03/24 02:37:22;;;;;;;8.40;4.90;;;6.60;99.90;;;;;;5033644;28;20082;-49
2021/03/24 02:39:49;;;;;;;4.90;3.63;;;6.70;99.90;;;;;;5033246;28;20025;-49
2021/03/24 02:42:15;;;;;;;7.30;4.45;;;6.60;99.90;;;;;;4982371;28;20045;-49
2021/03/24 02:44:43;;;;;;;9.73;5.13;;;6.70;99.90;;;;;;5033443;28;20049;-50
2021/03/24 02:47:10;;;;;;;3.50;2.70;;;6.70;99.90;;;;;;5033333;28;20160;-50
2021/03/24 02:49:39;;;;;;;8.35;5.32;;;6.60;99.90;;;;;;5033430;28;20048;-51
2021/03/24 02:52:05;;;;;;;6.68;3.38;;;6.60;99.90;;;;;;5033469;28;20104;-49
2021/03/24 02:54:32;;;;;;;7.32;3.85;;;6.60;99.90;;;;;;4998349;28;20047;-50
2021/03/24 02:56:59;;;;;;;7.38;4.18;;;6.60;99.90;;;;;;5033219;28;20029;-50
2021/03/24 02:59:25;;;;;;;8.23;3.85;;;6.40;99.90;;;;;;5033123;28;20036;-50
2021/03/24 03:02:01;;;;;;;7.85;4.03;;;6.40;99.90;;;;;;5033022;28;20022;-49
2021/03/24 03:04:47;;;;;;;8.55;4.93;;;6.50;99.90;;;;;;5033377;28;20022;-51
2021/03/24 03:07:21;;;;;;;6.22;3.75;;;6.50;99.90;;;;;;5035827;28;20449;-49
2021/03/24 03:09:52;;;;;;;8.35;3.92;;;6.50;99.90;;;;;;5037035;28;20033;-49
2021/03/24 03:12:45;;;;;;;7.97;4.15;;;6.50;99.90;;;;;;5037329;28;20116;-49
2021/03/24 03:15:34;;;;;;;12.05;6.03;;;6.50;99.90;;;;;;5037476;28;20036;-50
2021/03/24 03:18:08;;;;;;;6.72;4.85;;;6.50;99.90;;;;;;5037264;28;20151;-51
2021/03/24 03:20:40;;;;;;;7.07;3.97;;;6.50;99.90;;;;;;5037402;28;20071;-51
2021/03/24 03:23:20;;;;;;;7.25;4.72;;;6.40;99.90;;;;;;4988153;28;20041;-50
2021/03/24 03:25:54;;;;;;;6.95;4.78;;;6.40;99.90;;;;;;5036831;28;20032;-51
2021/03/24 03:28:20;;;;;;;6.38;3.88;;;;;;;;;;5036996;28;20056;-49
2021/03/24 03:30:49;;;;;;;5.35;3.33;;;6.40;99.90;;;;;;5036685;28;20128;-51
2021/03/24 03:33:19;;;;;;;7.10;3.92;;;6.50;99.90;;;;;;5036977;28;20164;-49
2021/03/24 03:35:44;;;;;;;6.25;4.07;;;6.40;99.90;;;;;;5036907;28;20044;-51
2021/03/24 03:38:15;;;;;;;9.50;4.70;;;6.30;99.90;;;;;;5036673;28;20033;-50
2021/03/24 03:40:44;;;;;;;6.18;3.50;;;6.30;99.90;;;;;;5036564;28;20025;-49
2021/03/24 03:43:14;;;;;;;6.20;3.92;;;6.30;99.90;;;;;;5042557;28;20048;-51
2021/03/24 03:45:43;;;;;;;6.47;4.05;;;6.40;99.90;;;;;;5046454;28;20025;-49
2021/03/24 03:48:11;;;;;;;6.13;4.15;;;6.40;99.90;;;;;;5036488;28;20083;-50
2021/03/24 03:50:37;;;;;;;6.18;4.20;;;6.40;99.90;;;;;;5036552;28;20146;-50
2021/03/24 03:53:36;;;;;;;7.45;4.20;;;6.40;99.90;;;;;;5036074;28;20033;-50
2021/03/24 03:56:19;;;;;;;6.68;4.10;;;6.40;99.90;;;;;;5035091;28;20060;-50
2021/03/24 03:59:10;;;;;;;7.78;3.42;;;6.30;99.90;;;;;;5036351;28;20052;-49
2021/03/24 04:01:45;;;;;;;7.17;3.97;;;6.30;99.90;;;;;;5032682;28;20073;-49
2021/03/24 04:04:20;;;;;;;5.85;3.58;;;6.40;99.90;;;;;;5036164;28;20362;-50
2021/03/24 04:06:56;;;;;;;9.80;5.07;;;6.50;99.90;;;;;;5037110;28;20029;-51
2021/03/24 04:09:22;;;;;;;8.38;4.88;;;6.40;99.90;;;;;;5036245;28;20033;-50
2021/03/24 04:11:52;;;;;;;9.32;5.07;;;6.30;99.90;;;;;;4985314;28;20041;-51
2021/03/24 04:14:24;;;;;;;7.97;4.75;;;6.50;99.90;;;;;;5017753;28;20049;-51
2021/03/24 04:16:51;;;;;;;10.13;4.15;;;6.50;99.90;;;;;;5035801;28;20029;-51
2021/03/24 04:19:18;;;;;;;7.88;4.47;;;;;;;;;;5034675;28;20473;-51
2021/03/24 04:21:49;;;;;;;8.05;4.47;;;6.60;99.90;;;;;;5035883;28;20045;-50
2021/03/24 04:24:45;;;;;;;10.95;4.95;;;6.50;99.90;;;;;;5033812;28;20047;-50
2021/03/24 04:27:14;;;;;;;11.15;6.07;;;6.60;99.90;;;;;;5035041;28;20034;-49
2021/03/24 04:29:50;;;;;;;9.25;5.47;;;6.70;99.90;;;;;;5035969;28;20049;-51
2021/03/24 04:32:16;;;;;;;8.55;4.95;;;6.80;99.90;;;;;;5035639;28;20075;-51
2021/03/24 04:34:42;;;;;;;9.15;5.07;;;7.20;99.90;;;;;;5035477;28;20412;-50
2021/03/24 04:37:16;;;;;;;8.18;4.57;;;7.10;99.90;;;;;;5035609;28;20100;-51
2021/03/24 04:40:11;;;;;;;7.63;4.47;;;7.10;99.90;;;;;;5017135;28;20037;-50
2021/03/24 04:42:54;;;;;;;9.32;6.10;;;7.00;99.90;;;;;;4966591;28;20043;-50
2021/03/24 04:45:29;;;;;;;10.52;5.55;;;7.00;99.90;;;;;;4974451;28;20039;-51
2021/03/24 04:47:58;;;;;;;7.15;4.28;;;7.10;99.90;;;;;;4974539;28;20406;-50
2021/03/24 04:50:34;;;;;;;8.98;4.88;;;7.20;99.90;;;;;;4974457;28;20027;-49
2021/03/24 04:53:03;;;;;;;8.98;5.15;;;7.00;99.90;;;;;;4974255;28;20038;-50
2021/03/24 04:55:31;;;;;;;8.23;5.10;;;7.10;99.90;;;;;;4974418;28;20085;-49
2021/03/24 04:57:59;;;;;;;11.55;5.53;;;7.20;99.90;;;;;;4974476;28;20042;-51
2021/03/24 05:00:50;;;;;;;9.15;5.45;;;7.10;99.90;;;;;;4974033;28;20126;-50
2021/03/24 05:03:22;;;;;;;9.02;5.10;;;7.20;99.90;;;;;;4935567;29;20066;-50
2021/03/24 05:05:56;;;;;;;9.43;5.10;;;7.30;99.90;;;;;;4935708;29;20039;-51
2021/03/24 05:08:43;;;;;;;8.10;5.07;;;7.10;99.90;;;;;;4935499;29;20126;-50
2021/03/24 05:11:23;;;;;;;9.20;5.38;;;7.10;99.90;;;;;;4935807;29;20035;-51
2021/03/24 05:14:13;;;;;;;9.25;4.88;;;7.20;99.90;;;;;;4935430;29;20624;-51
2021/03/24 05:16:43;;;;;;;8.93;5.22;;;7.20;99.90;;;;;;4935499;29;20039;-49
2021/03/24 05:19:23;;;;;;;10.90;5.85;;;7.30;99.90;;;;;;4953552;28;20125;-50
2021/03/24 05:22:07;;;;;;;10.25;5.45;;;7.20;99.90;;;;;;4992967;28;20101;-51
2021/03/24 05:24:36;;;;;;;8.93;5.00;;;7.20;99.90;;;;;;4977065;28;20046;-50
2021/03/24 05:27:09;;;;;;;8.80;5.75;;;7.10;99.90;;;;;;4993276;28;20620;-50
2021/03/24 05:29:44;;;;;;;13.13;5.75;;;7.10;99.90;;;;;;4961687;28;20045;-51
2021/03/24 05:43:18;;;;;;;11.23;6.35;;;;;;;;;;5173585;27;20134;-46
2021/03/24 05:45:50;;;;;;;7.85;4.57;;;;;;;;;;5173504;27;20034;-46
2021/03/24 05:48:16;;;;;;;;;;;;;;;;;;5173982;27;20079;-46
2021/03/24 05:51:19;;;;;;;9.43;5.18;;;7.70;99.90;;;;;;5173014;27;19911;-46
2021/03/24 05:54:01;;;;;;;9.73;5.70;;;7.60;99.90;;;;;;5164520;27;20026;-46
2021/03/24 05:57:01;;;;;;;10.00;5.22;;;7.60;99.90;;;;;;5152363;27;20011;-46
2021/03/24 05:59:38;;;;;;;8.38;5.05;;;;;;;;;;5116367;27;20465;-46
2021/03/24 06:02:46;;;;;;;9.13;5.78;;;7.40;99.90;;;;;;5155765;27;20027;-54
2021/03/24 06:05:19;;;;;;;11.10;6.47;;;7.20;99.90;;;;;;5066917;28;20499;-46
2021/03/24 06:08:25;;;;;;;10.15;5.70;;;7.20;99.90;;;;;;5067829;28;20047;-52
2021/03/24 06:10:51;;;;;;;9.25;5.47;;;;;;;;;;5067731;28;20064;-46
2021/03/24 06:13:53;;;;;;;10.00;5.40;;;7.10;99.90;;;;;;5068117;28;20060;-49
2021/03/24 06:16:28;;;;;;;7.80;4.60;;;7.20;99.90;;;;;;5068131;28;20055;-50
2021/03/24 06:19:25;;;;;;;9.50;5.28;;;7.20;99.90;;;;;;5067779;28;20159;-48
2021/03/24 06:22:23;;;;;;;9.68;6.10;;;7.20;99.90;;;;;;5068125;28;20028;-50
2021/03/24 06:25:02;;;;;;;11.27;5.88;;;7.20;99.90;;;;;;5027843;28;20124;-47
2021/03/24 06:27:36;;;;;;;7.68;4.63;;;7.20;99.90;;;;;;5027901;28;20112;-50
2021/03/24 06:30:05;;;;;;;10.07;6.78;;;7.20;99.90;;;;;;5026459;28;20053;-49
2021/03/24 06:33:01;;;;;;;10.98;6.28;;;7.40;99.90;;;;;;5027703;28;20045;-46
2021/03/24 06:35:54;;;;;;;9.20;5.88;;;7.40;99.90;;;;;;5027560;28;20029;-49
2021/03/24 06:38:23;;;;;;;10.93;5.57;;;7.40;99.90;;;;;;5024101;28;20041;-47
2021/03/24 06:41:00;;;;;;;8.80;5.60;;;7.40;99.90;;;;;;5029819;28;20482;-47
2021/03/24 06:43:47;;;;;;;7.88;4.80;;;7.30;99.90;;;;;;5058417;28;20033;-47
2021/03/24 06:46:16;;;;;;;5.95;3.45;;;7.30;99.90;;;;;;5054304;28;20025;-50
2021/03/24 06:48:54;;;;;;;10.27;6.10;;;;;;;;;;5054252;28;20052;-47
2021/03/24 06:51:35;;;;;;;10.52;5.78;;;;;;;;;;5054059;28;20080;-49
2021/03/24 06:54:01;;;;;;;12.10;6.70;;;;;;;;;;5054030;28;20029;-48
2021/03/24 06:56:54;;;;;;;10.80;6.40;;;7.30;99.90;;;;;;5053996;28;20025;-46
2021/03/24 06:59:26;;;;;;;12.45;6.85;;;;;;;;;;5053883;28;20025;-49
2021/03/24 07:02:11;;;;;;;12.68;6.45;;;;;;;;;;5093666;27;20127;-48
2021/03/24 07:05:01;;;;;;;9.25;4.47;;;7.70;99.90;;;;;;5137135;27;20031;-50
2021/03/24 07:07:57;;;;;;;10.02;4.95;;;7.60;99.90;;;;;;5137299;27;20023;-47
2021/03/24 07:10:47;;;;;;;9.18;5.45;;;7.50;99.90;;;;;;5136921;27;20118;-50
2021/03/24 07:13:33;;;;;;;10.95;5.80;;;7.50;99.90;;;;;;5137255;27;20027;-50
2021/03/24 07:16:14;;;;;;;9.40;2.65;;;7.40;99.90;;;;;;5136700;27;20031;-51
2021/03/24 07:18:52;;;;;;;9.63;5.95;;;7.20;99.90;;;;;;5101446;27;20034;-48
2021/03/24 07:21:33;;;;;;;2.83;2.33;;;;;;;;;;5101431;27;20450;-49
2021/03/24 07:24:18;;;;;;;9.70;5.13;;;;;;;;;;5101240;27;20031;-47
2021/03/24 07:26:53;;;;;;;3.97;2.10;;;7.20;99.90;;;;;;5136721;27;20145;-46
2021/03/24 07:29:40;;;;;;;6.07;3.47;;;6.70;99.90;;;;;;5136652;27;20030;-48
2021/03/24 07:32:52;;;;;;;4.15;2.83;;;6.30;99.90;;;;;;5136543;27;20039;-49
2021/03/24 07:35:24;;;;;;;4.75;3.13;;;;;;;;;;5033178;28;20065;-47
2021/03/24 07:38:06;;;;;;;7.20;3.47;;;6.20;99.90;;;;;;5033341;28;20069;-49
2021/03/24 07:40:50;;;;;;;10.48;4.63;;;6.10;99.90;;;;;;5030893;28;20033;-51
2021/03/24 07:43:30;;;;;;;10.00;5.45;;;6.30;99.90;;;;;;5028301;28;20503;-45
2021/03/24 07:46:33;;;;;;;14.68;5.32;;;6.40;99.90;;;;;;5032996;28;20077;-51
2021/03/24 07:49:20;;;;;;;;;;;6.40;99.90;;;;;;5016819;28;20041;-47
2021/03/24 07:51:56;;;;;;;9.25;4.88;;;6.40;99.90;;;;;;5031536;28;20008;-48
2021/03/24 07:54:46;;;;;;;10.45;6.10;;;6.50;99.90;;;;;;5031225;28;20037;-49
2021/03/24 07:57:11;;;;;;;17.05;7.97;;;6.60;99.90;;;;;;4999868;28;20540;-50
2021/03/24 07:59:46;;;;;;;6.80;3.67;;;6.50;99.90;;;;;;5031392;28;20029;-50
2021/03/24 08:02:47;;;;;;;11.88;6.05;;;6.50;99.90;;;;;;5014333;28;20065;-47
2021/03/24 08:05:25;;;;;;;12.48;7.07;;;6.40;99.90;;;;;;4999493;28;20042;-48
2021/03/24 08:08:16;;;;;;;15.93;8.70;;;6.40;99.90;;;;;;5028251;28;20631;-53
2021/03/24 08:11:06;;;;;;;9.43;5.90;;;6.50;99.90;;;;;;5077358;27;20031;-52
2021/03/24 08:13:48;;;;;;;13.18;7.35;;;6.60;99.90;;;;;;5114508;28;20023;-52
2021/03/24 08:16:27;;;;;;;11.15;5.80;;;6.80;99.90;;;;;;5115152;28;20066;-51
2021/03/24 08:19:34;;;;;;;11.50;5.55;;;6.60;99.90;;;;;;5116166;28;20152;-52
2021/03/24 08:22:33;;;;;;;7.72;5.03;;;6.60;99.90;;;;;;5116010;28;20020;-47
2021/03/24 08:25:31;;;;;;;11.68;6.35;;;6.60;99.90;;;;;;5095874;27;20042;-48
2021/03/24 08:28:22;;;;;;;11.32;5.82;;;6.60;99.90;;;;;;5117082;27;20073;-47
2021/03/24 08:31:06;;;;;;;10.05;5.43;;;6.60;99.90;;;;;;5117315;28;20125;-47
2021/03/24 08:33:47;;;;;;;10.15;6.70;;;6.60;99.90;;;;;;5118620;27;20062;-46
2021/03/24 08:36:35;;;;;;;11.35;5.45;;;6.50;99.90;;;;;;5130370;27;20357;-47
2021/03/24 08:39:32;;;;;;;9.18;4.93;;;6.50;99.90;;;;;;5114510;28;20039;-46
2021/03/24 08:42:25;;;;;;;7.47;4.55;;;6.60;99.90;;;;;;5114259;28;20089;-48
2021/03/24 08:45:33;;;;;;;4.35;2.28;;;6.70;99.90;;;;;;5114793;28;20027;-49
2021/03/24 08:48:07;;;;;;;7.70;4.53;;;6.70;99.90;;;;;;5031464;28;20432;-47
2021/03/24 08:50:40;;;;;;;8.27;3.92;;;7.00;99.90;;;;;;5030313;28;20069;-47
2021/03/24 08:53:10;;;;;;;17.55;8.18;;;;;;;;;;5030215;28;20075;-47
2021/03/24 08:55:46;;;;;;;12.05;6.07;;;;;;;;;;5030212;28;20026;-47
2021/03/24 08:58:16;;;;;;;14.73;5.78;;;;;;;;;;5030242;28;20049;-47
2021/03/24 09:01:03;;;;;;;10.65;5.22;;;6.90;99.90;;;;;;5030265;28;20370;-49
2021/03/24 09:03:32;;;;;;;11.45;5.63;;;;;;;;;;5030335;28;20415;-49
2021/03/24 09:06:16;;;;;;;20.60;8.32;;;7.00;99.90;;;;;;5029742;28;20373;-48
2021/03/24 09:09:04;;;;;;;8.77;4.72;;;6.90;99.90;;;;;;5030160;28;20441;-46
2021/03/24 09:11:56;;;;;;;8.70;3.58;;;7.10;99.90;;;;;;5029982;28;20053;-48
2021/03/24 09:14:31;;;;;;;8.93;3.72;;;7.10;99.90;;;;;;4997167;28;20457;-48
2021/03/24 09:17:34;;;;;;;12.90;6.55;;;7.00;99.90;;;;;;5029736;28;20038;-47
2021/03/24 09:20:17;;;;;;;21.63;8.02;;;7.20;99.90;;;;;;5013302;28;20468;-48
2021/03/24 09:23:23;;;;;;;8.70;4.38;;;7.20;99.90;;;;;;5029938;28;20029;-46
2021/03/24 09:25:55;;;;;;;17.00;9.40;;;7.20;99.90;;;;;;5069618;28;20167;-46
2021/03/24 09:28:42;;;;;;;8.60;4.85;;;7.30;99.90;;;;;;5069892;28;20133;-47
2021/03/24 09:31:22;;;;;;;8.82;5.63;;;7.20;99.90;;;;;;5036165;28;20029;-47
2021/03/24 09:33:50;;;;;;;7.32;4.45;;;;;;;;;;5036168;28;20032;-47
2021/03/24 09:36:39;;;;;;;8.00;4.07;;;7.20;99.90;;;;;;5002807;28;20033;-47
2021/03/24 09:39:18;;;;;;;10.40;5.53;;;7.20;99.90;;;;;;5037949;28;20036;-48
2021/03/24 09:41:50;;;;;;;9.57;5.35;;;7.30;99.90;;;;;;5069123;28;20040;-48
2021/03/24 09:44:43;;;;;;;8.70;4.53;;;7.30;99.90;;;;;;5069670;28;20107;-47
2021/03/24 09:47:31;;;;;;;7.40;4.97;;;7.40;99.90;;;;;;5069691;28;20458;-47
2021/03/24 09:50:14;;;;;;;9.55;4.78;;;7.30;99.90;;;;;;5069635;28;20067;-47
2021/03/24 09:52:46;;;;;;;6.75;4.38;;;;;;;;;;5069483;28;20127;-48
2021/03/24 09:55:11;;;;;;;6.18;3.70;;;7.50;99.90;;;;;;5069132;28;20116;-48
2021/03/24 09:57:53;;;;;;;8.82;5.03;;;;;;;;;;5069523;28;20424;-48
2021/03/24 10:00:19;;;;;;;6.25;4.13;;;7.50;99.90;;;;;;5071097;28;20040;-47
2021/03/24 10:02:54;;;;;;;6.03;3.58;;;7.40;99.90;;;;;;5112451;28;20027;-47
2021/03/24 10:05:35;;;;;;;6.82;4.22;;;7.40;99.90;;;;;;5112444;28;20490;-47
2021/03/24 10:08:10;;;;;;;16.27;7.43;;;7.40;99.90;;;;;;5075858;28;20612;-47
2021/03/24 10:10:36;;;;;;;7.65;4.40;;;7.60;99.90;;;;;;5056527;28;20421;-47
2021/03/24 10:13:26;;;;;;;11.10;5.15;;;7.60;99.90;;;;;;5112178;28;20374;-47
2021/03/24 10:16:13;;;;;;;11.25;5.57;;;7.60;99.90;;;;;;5112305;28;20099;-48
2021/03/24 10:18:57;;;;;;;11.70;5.70;;;7.60;99.90;;;;;;5114681;28;20107;-46
2021/03/24 10:21:36;;;;;;;5.97;3.50;;;7.60;99.90;;;;;;5116071;28;20090;-49
2021/03/24 10:24:19;;;;;;;8.63;5.00;;;7.60;99.90;;;;;;5097283;28;20456;-49
2021/03/24 10:26:55;;;;;;;10.23;5.65;;;7.50;99.90;;;;;;5116115;28;20023;-47
2021/03/24 10:29:26;;;;;;;9.73;6.10;;;7.60;99.90;;;;;;5115842;28;20355;-48
2021/03/24 10:32:34;;;;;;;10.85;6.10;;;7.60;99.90;;;;;;5115951;28;20031;-47
2021/03/24 10:35:15;;;;;;;10.27;5.20;;;7.50;99.90;;;;;;5077622;28;20036;-46
2021/03/24 10:37:54;;;;;;;11.55;6.55;;;7.60;99.90;;;;;;5115715;28;20028;-46
2021/03/24 10:40:28;;;;;;;12.15;6.88;;;7.70;99.90;;;;;;5098300;28;20032;-47
2021/03/24 10:43:12;;;;;;;8.82;5.00;;;7.60;99.90;;;;;;5050112;28;20041;-47
2021/03/24 10:45:45;;;;;;;9.25;4.78;;;7.60;99.90;;;;;;5002735;28;20044;-46
2021/03/24 10:48:32;;;;;;;12.07;5.68;;;7.50;99.90;;;;;;5052190;28;20090;-48
2021/03/24 10:51:18;;;;;;;12.88;5.80;;;7.60;99.90;;;;;;5052430;28;20033;-47
2021/03/24 10:53:44;;;;;;;6.00;3.38;;;7.60;99.90;;;;;;5052493;28;20495;-48
2021/03/24 10:56:30;;;;;;;11.20;6.00;;;7.60;99.90;;;;;;5035484;28;20043;-47
2021/03/24 10:59:43;;;;;;;13.90;6.72;;;7.70;99.90;;;;;;5052290;28;20119;-47
2021/03/24 11:02:26;;;;;;;10.32;5.78;;;7.70;99.90;;;;;;5012340;28;20190;-48
2021/03/24 11:05:03;;;;;;;7.88;4.82;;;7.70;99.90;;;;;;5012595;28;20033;-47
2021/03/24 11:07:51;;;;;;;9.30;5.45;;;7.70;99.90;;;;;;5012496;28;20606;-49
2021/03/24 11:10:39;;;;;;;8.50;5.65;;;7.80;99.90;;;;;;5012433;28;20030;-44
2021/03/24 11:13:51;;;;;;;8.50;4.78;;;8.00;99.90;;;;;;5035923;28;20072;-49
2021/03/24 11:16:40;;;;;;;9.95;5.72;;;8.10;99.90;;;;;;5039383;28;20524;-49
2021/03/24 11:19:39;;;;;;;9.80;6.00;;;8.10;99.90;;;;;;5051129;28;20541;-48
2021/03/24 11:22:23;;;;;;;9.68;5.00;;;8.00;99.90;;;;;;4991943;28;20035;-48
2021/03/24 11:25:02;;;;;;;10.63;6.35;;;8.00;99.90;;;;;;4989851;28;20057;-48
2021/03/24 11:27:53;;;;;;;11.02;5.75;;;7.80;99.90;;;;;;4981133;28;20034;-47
2021/03/24 11:30:41;;;;;;;12.40;6.57;;;7.70;99.90;;;;;;4983532;28;20030;-50
2021/03/24 11:33:30;;;;;;;10.73;6.47;;;7.80;99.90;;;;;;4975916;28;20468;-47
2021/03/24 11:36:07;;;;;;;11.18;6.95;;;8.00;99.90;;;;;;4972230;28;20035;-50
2021/03/24 11:38:44;;;;;;;12.35;6.40;;;8.40;99.90;;;;;;4939416;28;20035;-49
2021/03/24 11:41:30;;;;;;;11.27;6.88;;;8.20;99.90;;;;;;4917442;29;20062;-43
2021/03/24 11:44:00;;;;;;;16.88;8.20;;;8.50;99.90;;;;;;4915947;29;20028;-50
2021/03/24 11:46:30;;;;;;;14.35;8.13;;;8.40;99.90;;;;;;4935339;29;20047;-47
2021/03/24 11:49:05;;;;;;;13.15;7.63;;;8.50;99.90;;;;;;4943579;29;20039;-50
2021/03/24 11:52:00;;;;;;;16.05;8.43;;;8.50;99.90;;;;;;4934506;29;20503;-49
2021/03/24 11:54:57;;;;;;;19.58;11.82;;;8.60;99.90;;;;;;4953228;28;20109;-50
2021/03/24 11:57:26;;;;;;;13.40;9.82;;;8.60;99.90;;;;;;4973446;28;20035;-50
2021/03/24 11:59:57;;;;;;;14.13;7.30;;;8.30;99.90;;;;;;5032656;28;20029;-50
2021/03/24 12:02:55;;;;;;;15.50;9.02;;;8.30;99.90;;;;;;5032465;28;20044;-50
2021/03/24 12:05:33;;;;;;;14.65;8.13;;;8.20;99.90;;;;;;5032207;28;20029;-49
2021/03/24 12:08:25;;;;;;;12.73;7.63;;;8.30;99.90;;;;;;5069448;28;20037;-50
2021/03/24 12:11:02;;;;;;;13.57;6.97;;;8.20;99.90;;;;;;5032402;28;20033;-50
2021/03/24 12:13:30;;;;;;;12.40;6.93;;;8.50;99.90;;;;;;5032261;28;20029;-49
2021/03/24 12:16:11;;;;;;;12.10;7.00;;;8.30;99.90;;;;;;5037128;28;20456;-45
2021/03/24 12:18:54;;;;;;;8.18;4.65;;;8.10;99.90;;;;;;5036861;28;20033;-47
2021/03/24 12:21:28;;;;;;;13.13;6.95;;;8.00;99.90;;;;;;5052101;28;20428;-48
2021/03/24 12:24:00;;;;;;;11.60;6.43;;;8.00;99.90;;;;;;5052213;28;20469;-47
2021/03/24 12:26:33;;;;;;;11.52;7.10;;;8.20;99.90;;;;;;5019158;28;20395;-47
2021/03/24 12:29:12;;;;;;;6.30;3.53;;;8.00;99.90;;;;;;5035454;28;20550;-47
2021/03/24 12:31:53;;;;;;;9.40;5.47;;;7.90;99.90;;;;;;5036215;28;20476;-47
2021/03/24 12:34:21;;;;;;;10.88;5.88;;;7.90;99.90;;;;;;5052173;28;20051;-47
2021/03/24 12:36:54;;;;;;;12.88;7.30;;;7.90;99.90;;;;;;5052062;28;20460;-47
2021/03/24 12:39:40;;;;;;;9.68;6.38;;;8.00;99.90;;;;;;5052220;28;20032;-47
2021/03/24 12:42:30;;;;;;;10.65;6.13;;;8.00;99.90;;;;;;5097402;28;20375;-46
2021/03/24 12:44:57;;;;;;;9.55;6.10;;;8.00;99.90;;;;;;5056374;28;20461;-48
2021/03/24 12:47:38;;;;;;;13.38;7.82;;;8.20;99.90;;;;;;5032086;28;20033;-47
2021/03/24 12:50:09;;;;;;;9.00;5.40;;;8.30;99.90;;;;;;5066335;28;20033;-46
2021/03/24 12:52:48;;;;;;;10.33;6.07;;;8.30;99.90;;;;;;5068909;28;20060;-47
2021/03/24 12:55:17;;;;;;;10.57;6.18;;;8.30;99.90;;;;;;5070687;28;20098;-47
2021/03/24 12:58:28;;;;;;;8.20;5.30;;;8.30;99.90;;;;;;5070604;28;20024;-47
2021/03/24 13:01:17;;;;;;;10.90;6.22;;;8.30;99.90;;;;;;5002329;28;20034;-47
2021/03/24 13:03:55;;;;;;;9.02;5.18;;;8.30;99.90;;;;;;5001777;28;20084;-47
2021/03/24 13:06:38;;;;;;;13.52;6.00;;;8.30;99.90;;;;;;5001552;28;20567;-47
2021/03/24 13:09:16;;;;;;;8.98;5.88;;;8.60;99.90;;;;;;5001817;28;20022;-47
2021/03/24 13:11:57;;;;;;;8.05;4.45;;;8.50;99.90;;;;;;5001064;28;20042;-47
2021/03/24 13:14:50;;;;;;;10.38;6.47;;;8.50;99.90;;;;;;5001511;28;20030;-47
2021/03/24 13:17:27;;;;;;;11.35;6.40;;;8.50;99.90;;;;;;5038825;28;20447;-47
2021/03/24 13:20:28;;;;;;;8.82;4.50;;;8.50;99.90;;;;;;5040853;28;20116;-47
2021/03/24 13:23:26;;;;;;;10.35;6.30;;;8.30;99.90;;;;;;5018952;28;20470;-47
2021/03/24 13:25:55;;;;;;;5.05;3.30;;;8.40;99.90;;;;;;5040959;28;20033;-47
2021/03/24 13:28:54;;;;;;;9.30;5.63;;;8.20;99.90;;;;;;5040790;28;20036;-47
2021/03/24 13:31:41;;;;;;;11.20;5.75;;;8.00;99.90;;;;;;5074289;28;20080;-47
2021/03/24 13:34:13;;;;;;;7.50;4.93;;;8.10;99.90;;;;;;5132568;28;20365;-47
2021/03/24 13:36:51;;;;;;;12.10;6.65;;;8.00;99.90;;;;;;5133879;28;20019;-47
2021/03/24 13:39:23;;;;;;;10.80;4.90;;;8.00;99.90;;;;;;5132562;28;20052;-47
2021/03/24 13:41:59;;;;;;;10.27;5.85;;;7.90;99.90;;;;;;5136197;27;20042;-47
2021/03/24 13:44:24;;;;;;;9.38;5.65;;;8.10;99.90;;;;;;5090386;27;20035;-47
2021/03/24 13:46:54;;;;;;;4.68;3.15;;;8.10;99.90;;;;;;5143604;27;20023;-46
2021/03/24 13:49:38;;;;;;;12.77;6.65;;;7.90;99.90;;;;;;5143385;27;20330;-47
2021/03/24 13:52:21;;;;;;;9.68;4.38;;;8.10;99.90;;;;;;5142359;27;20423;-47
2021/03/24 13:55:11;;;;;;;9.30;5.13;;;8.00;99.90;;;;;;5155273;27;20035;-47
2021/03/24 13:58:04;;;;;;;9.38;4.85;;;8.10;99.90;;;;;;5122648;27;20468;-46
2021/03/24 14:00:54;;;;;;;7.03;4.50;;;8.10;99.90;;;;;;5140843;27;20018;-46
2021/03/24 14:03:39;;;;;;;6.55;4.20;;;8.10;99.90;;;;;;5159089;27;20023;-47
2021/03/24 14:06:12;;;;;;;4.50;3.10;;;8.10;99.90;;;;;;5159170;27;20054;-47
2021/03/24 14:08:56;;;;;;;7.80;4.45;;;8.00;99.90;;;;;;5158910;27;20026;-47
2021/03/24 14:11:45;;;;;;;8.85;3.65;;;8.10;99.90;;;;;;5158668;27;20033;-47